sensor_id;sensor_type;location;lat;lon;timestamp;P1;durP1;ratioP1;P2;durP2;ratioP2
24751;SDS011;27246;52.376;4.628;2023-06-14T00:00:23;4.45;;;3.83;;
24751;SDS011;27246;52.376;4.628;2023-06-14T00:05:25;5.00;;;4.03;;
24751;SDS011;27246;52.376;4.628;2023-06-14T00:10:27;5.95;;;4.03;;
24751;SDS011;27246;52.376;4.628;2023-06-14T00:15:32;6.43;;;4.07;;
24751;SDS011;27246;52.376;4.628;2023-06-14T00:20:35;6.20;;;4.05;;
24751;SDS011;27246;52.376;4.628;2023-06-14T00:25:36;7.47;;;3.80;;
24751;SDS011;27246;52.376;4.628;2023-06-14T00:30:38;4.70;;;3.05;;
24751;SDS011;27246;52.376;4.628;2023-06-14T00:35:40;6.47;;;3.50;;
24751;SDS011;27246;52.376;4.628;2023-06-14T00:40:42;4.10;;;3.65;;
24751;SDS011;27246;52.376;4.628;2023-06-14T00:45:47;7.28;;;3.88;;
24751;SDS011;27246;52.376;4.628;2023-06-14T00:50:51;5.90;;;3.63;;
24751;SDS011;27246;52.376;4.628;2023-06-14T00:55:54;5.03;;;3.90;;
24751;SDS011;27246;52.376;4.628;2023-06-14T01:00:56;4.50;;;3.50;;
24751;SDS011;27246;52.376;4.628;2023-06-14T01:06:11;8.88;;;4.07;;
24751;SDS011;27246;52.376;4.628;2023-06-14T01:11:32;8.13;;;3.42;;
24751;SDS011;27246;52.376;4.628;2023-06-14T01:16:39;4.25;;;3.45;;
24751;SDS011;27246;52.376;4.628;2023-06-14T01:21:42;7.15;;;3.55;;
24751;SDS011;27246;52.376;4.628;2023-06-14T01:26:43;7.03;;;3.90;;
24751;SDS011;27246;52.376;4.628;2023-06-14T01:31:47;7.38;;;3.95;;
24751;SDS011;27246;52.376;4.628;2023-06-14T01:36:51;6.90;;;3.38;;
24751;SDS011;27246;52.376;4.628;2023-06-14T01:41:56;9.45;;;4.13;;
24751;SDS011;27246;52.376;4.628;2023-06-14T01:46:59;4.57;;;3.28;;
24751;SDS011;27246;52.376;4.628;2023-06-14T01:52:03;7.70;;;3.38;;
24751;SDS011;27246;52.376;4.628;2023-06-14T01:57:05;3.30;;;3.00;;
24751;SDS011;27246;52.376;4.628;2023-06-14T02:02:08;5.40;;;3.15;;
24751;SDS011;27246;52.376;4.628;2023-06-14T02:07:10;5.20;;;3.10;;
24751;SDS011;27246;52.376;4.628;2023-06-14T02:12:15;7.35;;;3.17;;
24751;SDS011;27246;52.376;4.628;2023-06-14T02:17:18;6.60;;;2.97;;
24751;SDS011;27246;52.376;4.628;2023-06-14T02:22:22;7.55;;;3.60;;
24751;SDS011;27246;52.376;4.628;2023-06-14T02:27:24;7.07;;;3.10;;
24751;SDS011;27246;52.376;4.628;2023-06-14T02:32:26;5.20;;;2.85;;
24751;SDS011;27246;52.376;4.628;2023-06-14T02:37:28;5.82;;;2.97;;
24751;SDS011;27246;52.376;4.628;2023-06-14T02:42:31;4.88;;;3.40;;
24751;SDS011;27246;52.376;4.628;2023-06-14T02:47:33;5.70;;;3.35;;
24751;SDS011;27246;52.376;4.628;2023-06-14T02:52:35;6.05;;;3.20;;
24751;SDS011;27246;52.376;4.628;2023-06-14T02:57:37;3.88;;;2.88;;
24751;SDS011;27246;52.376;4.628;2023-06-14T03:02:40;6.28;;;3.13;;
24751;SDS011;27246;52.376;4.628;2023-06-14T03:07:45;6.57;;;3.20;;
24751;SDS011;27246;52.376;4.628;2023-06-14T03:12:49;5.80;;;3.58;;
24751;SDS011;27246;52.376;4.628;2023-06-14T03:17:55;6.35;;;2.90;;
24751;SDS011;27246;52.376;4.628;2023-06-14T03:22:57;5.57;;;3.28;;
24751;SDS011;27246;52.376;4.628;2023-06-14T03:28:03;8.23;;;3.60;;
24751;SDS011;27246;52.376;4.628;2023-06-14T03:33:06;5.38;;;3.55;;
24751;SDS011;27246;52.376;4.628;2023-06-14T03:38:12;5.35;;;3.67;;
24751;SDS011;27246;52.376;4.628;2023-06-14T03:43:14;6.18;;;3.85;;
24751;SDS011;27246;52.376;4.628;2023-06-14T03:48:16;5.10;;;3.60;;
24751;SDS011;27246;52.376;4.628;2023-06-14T03:53:21;8.98;;;4.45;;
24751;SDS011;27246;52.376;4.628;2023-06-14T03:58:27;6.50;;;3.92;;
24751;SDS011;27246;52.376;4.628;2023-06-14T04:03:33;5.40;;;3.67;;
24751;SDS011;27246;52.376;4.628;2023-06-14T04:08:37;7.30;;;3.58;;
24751;SDS011;27246;52.376;4.628;2023-06-14T04:13:41;5.45;;;3.58;;
24751;SDS011;27246;52.376;4.628;2023-06-14T04:18:43;7.63;;;3.42;;
24751;SDS011;27246;52.376;4.628;2023-06-14T04:23:45;5.28;;;3.60;;
24751;SDS011;27246;52.376;4.628;2023-06-14T04:28:49;7.28;;;3.20;;
24751;SDS011;27246;52.376;4.628;2023-06-14T04:33:52;4.00;;;3.10;;
24751;SDS011;27246;52.376;4.628;2023-06-14T04:38:56;8.43;;;3.50;;
24751;SDS011;27246;52.376;4.628;2023-06-14T04:44:01;3.33;;;3.03;;
24751;SDS011;27246;52.376;4.628;2023-06-14T04:49:08;5.90;;;3.80;;
24751;SDS011;27246;52.376;4.628;2023-06-14T04:54:11;9.77;;;4.03;;
24751;SDS011;27246;52.376;4.628;2023-06-14T04:59:17;4.75;;;3.00;;
24751;SDS011;27246;52.376;4.628;2023-06-14T05:04:19;7.65;;;3.50;;
24751;SDS011;27246;52.376;4.628;2023-06-14T05:09:23;7.45;;;4.00;;
24751;SDS011;27246;52.376;4.628;2023-06-14T05:14:26;12.18;;;3.75;;
24751;SDS011;27246;52.376;4.628;2023-06-14T05:19:29;7.70;;;3.83;;
24751;SDS011;27246;52.376;4.628;2023-06-14T05:24:32;17.75;;;4.43;;
24751;SDS011;27246;52.376;4.628;2023-06-14T05:29:34;8.90;;;4.00;;
24751;SDS011;27246;52.376;4.628;2023-06-14T05:34:35;5.63;;;3.03;;
24751;SDS011;27246;52.376;4.628;2023-06-14T05:39:37;3.88;;;3.20;;
24751;SDS011;27246;52.376;4.628;2023-06-14T05:44:41;8.38;;;4.57;;
24751;SDS011;27246;52.376;4.628;2023-06-14T05:49:43;3.33;;;3.00;;
24751;SDS011;27246;52.376;4.628;2023-06-14T05:54:45;8.20;;;3.80;;
24751;SDS011;27246;52.376;4.628;2023-06-14T05:59:47;7.05;;;3.17;;
24751;SDS011;27246;52.376;4.628;2023-06-14T06:04:50;7.53;;;3.25;;
24751;SDS011;27246;52.376;4.628;2023-06-14T06:09:52;8.85;;;3.47;;
24751;SDS011;27246;52.376;4.628;2023-06-14T06:14:54;6.63;;;3.30;;
24751;SDS011;27246;52.376;4.628;2023-06-14T06:19:56;5.18;;;3.85;;
24751;SDS011;27246;52.376;4.628;2023-06-14T06:24:58;11.38;;;3.67;;
24751;SDS011;27246;52.376;4.628;2023-06-14T06:30:01;5.10;;;3.25;;
24751;SDS011;27246;52.376;4.628;2023-06-14T06:35:03;9.07;;;3.42;;
24751;SDS011;27246;52.376;4.628;2023-06-14T06:40:07;9.05;;;4.03;;
24751;SDS011;27246;52.376;4.628;2023-06-14T06:45:10;4.55;;;3.78;;
24751;SDS011;27246;52.376;4.628;2023-06-14T06:50:12;8.93;;;3.45;;
24751;SDS011;27246;52.376;4.628;2023-06-14T06:55:13;5.10;;;3.65;;
24751;SDS011;27246;52.376;4.628;2023-06-14T07:00:16;6.40;;;3.50;;
24751;SDS011;27246;52.376;4.628;2023-06-14T07:05:19;8.38;;;4.30;;
24751;SDS011;27246;52.376;4.628;2023-06-14T07:10:21;4.10;;;3.67;;
24751;SDS011;27246;52.376;4.628;2023-06-14T07:15:23;7.57;;;3.80;;
24751;SDS011;27246;52.376;4.628;2023-06-14T07:20:25;5.05;;;3.67;;
24751;SDS011;27246;52.376;4.628;2023-06-14T07:25:27;5.43;;;3.78;;
24751;SDS011;27246;52.376;4.628;2023-06-14T07:30:29;5.50;;;3.65;;
24751;SDS011;27246;52.376;4.628;2023-06-14T07:35:34;5.88;;;3.95;;
24751;SDS011;27246;52.376;4.628;2023-06-14T07:40:36;11.07;;;4.43;;
24751;SDS011;27246;52.376;4.628;2023-06-14T07:45:38;8.10;;;4.15;;
24751;SDS011;27246;52.376;4.628;2023-06-14T07:50:42;5.90;;;3.50;;
24751;SDS011;27246;52.376;4.628;2023-06-14T07:55:48;7.93;;;4.57;;
24751;SDS011;27246;52.376;4.628;2023-06-14T08:00:55;8.25;;;4.18;;
24751;SDS011;27246;52.376;4.628;2023-06-14T08:05:57;5.93;;;3.50;;
24751;SDS011;27246;52.376;4.628;2023-06-14T08:10:59;5.53;;;3.15;;
24751;SDS011;27246;52.376;4.628;2023-06-14T08:16:01;5.68;;;3.50;;
24751;SDS011;27246;52.376;4.628;2023-06-14T08:21:05;7.50;;;3.33;;
24751;SDS011;27246;52.376;4.628;2023-06-14T08:26:08;6.35;;;3.25;;
24751;SDS011;27246;52.376;4.628;2023-06-14T08:31:11;4.10;;;3.70;;
24751;SDS011;27246;52.376;4.628;2023-06-14T08:36:12;6.22;;;3.17;;
24751;SDS011;27246;52.376;4.628;2023-06-14T08:41:19;7.10;;;3.60;;
24751;SDS011;27246;52.376;4.628;2023-06-14T08:46:25;5.32;;;2.90;;
24751;SDS011;27246;52.376;4.628;2023-06-14T08:51:28;6.65;;;3.33;;
24751;SDS011;27246;52.376;4.628;2023-06-14T08:56:36;7.88;;;3.33;;
24751;SDS011;27246;52.376;4.628;2023-06-14T09:01:39;5.45;;;3.30;;
24751;SDS011;27246;52.376;4.628;2023-06-14T09:06:52;3.67;;;3.03;;
24751;SDS011;27246;52.376;4.628;2023-06-14T09:11:56;3.80;;;2.47;;
24751;SDS011;27246;52.376;4.628;2023-06-14T09:16:57;7.07;;;2.90;;
24751;SDS011;27246;52.376;4.628;2023-06-14T09:22:00;2.72;;;2.30;;
24751;SDS011;27246;52.376;4.628;2023-06-14T09:27:04;5.18;;;2.90;;
24751;SDS011;27246;52.376;4.628;2023-06-14T09:32:07;6.88;;;2.65;;
24751;SDS011;27246;52.376;4.628;2023-06-14T09:37:10;2.92;;;2.60;;
24751;SDS011;27246;52.376;4.628;2023-06-14T09:42:16;3.65;;;2.45;;
24751;SDS011;27246;52.376;4.628;2023-06-14T09:47:22;4.68;;;2.25;;
24751;SDS011;27246;52.376;4.628;2023-06-14T09:52:27;4.53;;;3.00;;
24751;SDS011;27246;52.376;4.628;2023-06-14T09:57:31;8.15;;;2.60;;
24751;SDS011;27246;52.376;4.628;2023-06-14T10:02:37;5.60;;;2.92;;
24751;SDS011;27246;52.376;4.628;2023-06-14T10:07:59;4.78;;;2.58;;
24751;SDS011;27246;52.376;4.628;2023-06-14T10:13:05;4.03;;;2.20;;
24751;SDS011;27246;52.376;4.628;2023-06-14T10:23:30;4.47;;;2.60;;
24751;SDS011;27246;52.376;4.628;2023-06-14T10:28:38;2.47;;;2.20;;
24751;SDS011;27246;52.376;4.628;2023-06-14T10:33:49;6.40;;;1.85;;
24751;SDS011;27246;52.376;4.628;2023-06-14T10:39:04;4.13;;;2.15;;
24751;SDS011;27246;52.376;4.628;2023-06-14T10:49:17;2.75;;;2.15;;
24751;SDS011;27246;52.376;4.628;2023-06-14T10:54:22;7.72;;;2.20;;
24751;SDS011;27246;52.376;4.628;2023-06-14T10:59:26;4.43;;;2.15;;
24751;SDS011;27246;52.376;4.628;2023-06-14T11:04:33;3.95;;;1.90;;
24751;SDS011;27246;52.376;4.628;2023-06-14T11:10:00;4.88;;;2.55;;
24751;SDS011;27246;52.376;4.628;2023-06-14T11:15:30;9.68;;;3.13;;
24751;SDS011;27246;52.376;4.628;2023-06-14T11:20:34;3.17;;;2.00;;
24751;SDS011;27246;52.376;4.628;2023-06-14T11:25:36;7.97;;;2.50;;
24751;SDS011;27246;52.376;4.628;2023-06-14T11:30:38;4.40;;;1.70;;
24751;SDS011;27246;52.376;4.628;2023-06-14T11:35:41;8.57;;;2.90;;
24751;SDS011;27246;52.376;4.628;2023-06-14T11:40:47;2.90;;;2.15;;
24751;SDS011;27246;52.376;4.628;2023-06-14T11:45:49;4.97;;;1.92;;
24751;SDS011;27246;52.376;4.628;2023-06-14T11:51:10;4.18;;;1.83;;
24751;SDS011;27246;52.376;4.628;2023-06-14T11:56:15;16.98;;;3.15;;
24751;SDS011;27246;52.376;4.628;2023-06-14T12:01:19;8.02;;;3.03;;
24751;SDS011;27246;52.376;4.628;2023-06-14T12:06:27;4.03;;;2.08;;
24751;SDS011;27246;52.376;4.628;2023-06-14T12:11:34;4.38;;;2.30;;
24751;SDS011;27246;52.376;4.628;2023-06-14T12:16:38;2.97;;;1.95;;
24751;SDS011;27246;52.376;4.628;2023-06-14T12:21:43;7.57;;;1.98;;
24751;SDS011;27246;52.376;4.628;2023-06-14T12:26:51;2.70;;;1.97;;
24751;SDS011;27246;52.376;4.628;2023-06-14T12:31:54;3.95;;;1.70;;
24751;SDS011;27246;52.376;4.628;2023-06-14T12:36:58;3.75;;;1.90;;
24751;SDS011;27246;52.376;4.628;2023-06-14T12:41:59;4.15;;;2.10;;
24751;SDS011;27246;52.376;4.628;2023-06-14T12:47:05;3.17;;;1.80;;
24751;SDS011;27246;52.376;4.628;2023-06-14T12:52:07;16.25;;;2.72;;
24751;SDS011;27246;52.376;4.628;2023-06-14T12:57:09;2.50;;;1.65;;
24751;SDS011;27246;52.376;4.628;2023-06-14T13:02:15;1.83;;;1.58;;
24751;SDS011;27246;52.376;4.628;2023-06-14T13:07:18;3.17;;;1.98;;
24751;SDS011;27246;52.376;4.628;2023-06-14T13:12:21;3.88;;;2.00;;
24751;SDS011;27246;52.376;4.628;2023-06-14T13:17:23;5.97;;;2.20;;
24751;SDS011;27246;52.376;4.628;2023-06-14T13:22:25;2.63;;;2.10;;
24751;SDS011;27246;52.376;4.628;2023-06-14T13:27:28;3.63;;;1.60;;
24751;SDS011;27246;52.376;4.628;2023-06-14T13:32:29;4.07;;;2.10;;
24751;SDS011;27246;52.376;4.628;2023-06-14T13:37:32;6.55;;;2.53;;
24751;SDS011;27246;52.376;4.628;2023-06-14T13:42:34;6.55;;;1.60;;
24751;SDS011;27246;52.376;4.628;2023-06-14T13:47:37;3.92;;;2.10;;
24751;SDS011;27246;52.376;4.628;2023-06-14T13:52:39;3.58;;;1.77;;
24751;SDS011;27246;52.376;4.628;2023-06-14T13:57:41;7.55;;;1.98;;
24751;SDS011;27246;52.376;4.628;2023-06-14T14:02:43;4.53;;;1.77;;
24751;SDS011;27246;52.376;4.628;2023-06-14T14:07:45;3.33;;;1.80;;
24751;SDS011;27246;52.376;4.628;2023-06-14T14:12:47;1.83;;;1.50;;
24751;SDS011;27246;52.376;4.628;2023-06-14T14:17:50;3.35;;;1.67;;
24751;SDS011;27246;52.376;4.628;2023-06-14T14:22:52;2.63;;;2.05;;
24751;SDS011;27246;52.376;4.628;2023-06-14T14:27:54;1.50;;;1.40;;
24751;SDS011;27246;52.376;4.628;2023-06-14T14:32:56;3.20;;;1.70;;
24751;SDS011;27246;52.376;4.628;2023-06-14T14:37:58;4.72;;;1.70;;
24751;SDS011;27246;52.376;4.628;2023-06-14T14:43:02;3.10;;;1.77;;
24751;SDS011;27246;52.376;4.628;2023-06-14T14:48:04;4.72;;;1.50;;
24751;SDS011;27246;52.376;4.628;2023-06-14T14:53:07;10.02;;;2.45;;
24751;SDS011;27246;52.376;4.628;2023-06-14T14:58:09;3.70;;;2.00;;
24751;SDS011;27246;52.376;4.628;2023-06-14T15:03:11;5.43;;;2.22;;
24751;SDS011;27246;52.376;4.628;2023-06-14T15:08:13;6.43;;;2.17;;
24751;SDS011;27246;52.376;4.628;2023-06-14T15:13:14;2.58;;;2.15;;
24751;SDS011;27246;52.376;4.628;2023-06-14T15:18:16;7.03;;;2.45;;
24751;SDS011;27246;52.376;4.628;2023-06-14T15:23:18;4.18;;;2.40;;
24751;SDS011;27246;52.376;4.628;2023-06-14T15:28:21;3.92;;;1.52;;
24751;SDS011;27246;52.376;4.628;2023-06-14T15:33:25;4.43;;;1.55;;
24751;SDS011;27246;52.376;4.628;2023-06-14T15:38:27;9.38;;;1.77;;
24751;SDS011;27246;52.376;4.628;2023-06-14T15:43:28;3.22;;;1.58;;
24751;SDS011;27246;52.376;4.628;2023-06-14T15:48:32;2.10;;;1.83;;
24751;SDS011;27246;52.376;4.628;2023-06-14T15:53:35;2.08;;;1.88;;
24751;SDS011;27246;52.376;4.628;2023-06-14T15:58:37;3.53;;;1.60;;
24751;SDS011;27246;52.376;4.628;2023-06-14T16:03:44;2.83;;;1.70;;
24751;SDS011;27246;52.376;4.628;2023-06-14T16:08:47;5.50;;;2.25;;
24751;SDS011;27246;52.376;4.628;2023-06-14T16:13:49;6.88;;;2.38;;
24751;SDS011;27246;52.376;4.628;2023-06-14T16:18:51;3.28;;;2.10;;
24751;SDS011;27246;52.376;4.628;2023-06-14T16:23:53;1.70;;;1.60;;
24751;SDS011;27246;52.376;4.628;2023-06-14T16:28:56;3.15;;;1.90;;
24751;SDS011;27246;52.376;4.628;2023-06-14T16:33:57;4.78;;;2.00;;
24751;SDS011;27246;52.376;4.628;2023-06-14T16:38:59;2.97;;;1.85;;
24751;SDS011;27246;52.376;4.628;2023-06-14T16:44:01;5.35;;;2.03;;
24751;SDS011;27246;52.376;4.628;2023-06-14T16:49:05;7.88;;;4.63;;
24751;SDS011;27246;52.376;4.628;2023-06-14T16:54:07;4.05;;;2.33;;
24751;SDS011;27246;52.376;4.628;2023-06-14T16:59:09;4.30;;;2.42;;
24751;SDS011;27246;52.376;4.628;2023-06-14T17:04:11;4.32;;;1.85;;
24751;SDS011;27246;52.376;4.628;2023-06-14T17:09:13;5.72;;;2.33;;
24751;SDS011;27246;52.376;4.628;2023-06-14T17:14:15;2.00;;;1.85;;
24751;SDS011;27246;52.376;4.628;2023-06-14T17:19:17;3.28;;;2.05;;
24751;SDS011;27246;52.376;4.628;2023-06-14T17:24:19;4.75;;;2.10;;
24751;SDS011;27246;52.376;4.628;2023-06-14T17:29:27;2.05;;;1.85;;
24751;SDS011;27246;52.376;4.628;2023-06-14T17:34:28;4.55;;;2.38;;
24751;SDS011;27246;52.376;4.628;2023-06-14T17:39:30;3.35;;;2.00;;
24751;SDS011;27246;52.376;4.628;2023-06-14T17:44:32;3.13;;;2.00;;
24751;SDS011;27246;52.376;4.628;2023-06-14T17:49:34;2.67;;;1.98;;
24751;SDS011;27246;52.376;4.628;2023-06-14T17:54:36;2.60;;;1.80;;
24751;SDS011;27246;52.376;4.628;2023-06-14T17:59:38;4.47;;;2.95;;
24751;SDS011;27246;52.376;4.628;2023-06-14T18:04:40;2.83;;;1.95;;
24751;SDS011;27246;52.376;4.628;2023-06-14T18:09:42;4.88;;;1.80;;
24751;SDS011;27246;52.376;4.628;2023-06-14T18:14:43;4.35;;;2.20;;
24751;SDS011;27246;52.376;4.628;2023-06-14T18:19:45;3.53;;;2.55;;
24751;SDS011;27246;52.376;4.628;2023-06-14T18:24:47;4.28;;;2.22;;
24751;SDS011;27246;52.376;4.628;2023-06-14T18:29:49;3.17;;;2.00;;
24751;SDS011;27246;52.376;4.628;2023-06-14T18:34:51;4.70;;;2.28;;
24751;SDS011;27246;52.376;4.628;2023-06-14T18:39:53;3.97;;;1.92;;
24751;SDS011;27246;52.376;4.628;2023-06-14T18:44:56;3.22;;;2.20;;
24751;SDS011;27246;52.376;4.628;2023-06-14T18:49:57;3.70;;;2.15;;
24751;SDS011;27246;52.376;4.628;2023-06-14T18:55:06;1.90;;;1.60;;
24751;SDS011;27246;52.376;4.628;2023-06-14T19:00:09;2.67;;;1.63;;
24751;SDS011;27246;52.376;4.628;2023-06-14T19:05:11;3.92;;;1.90;;
24751;SDS011;27246;52.376;4.628;2023-06-14T19:10:13;2.20;;;1.58;;
24751;SDS011;27246;52.376;4.628;2023-06-14T19:15:15;2.22;;;1.70;;
24751;SDS011;27246;52.376;4.628;2023-06-14T19:20:17;5.18;;;2.33;;
24751;SDS011;27246;52.376;4.628;2023-06-14T19:25:19;7.20;;;2.13;;
24751;SDS011;27246;52.376;4.628;2023-06-14T19:30:21;3.65;;;1.45;;
24751;SDS011;27246;52.376;4.628;2023-06-14T19:35:23;11.43;;;2.53;;
24751;SDS011;27246;52.376;4.628;2023-06-14T19:40:25;2.97;;;1.58;;
24751;SDS011;27246;52.376;4.628;2023-06-14T19:45:27;2.25;;;1.38;;
24751;SDS011;27246;52.376;4.628;2023-06-14T19:50:29;4.35;;;1.70;;
24751;SDS011;27246;52.376;4.628;2023-06-14T19:55:30;4.85;;;2.17;;
24751;SDS011;27246;52.376;4.628;2023-06-14T20:00:33;2.67;;;1.35;;
24751;SDS011;27246;52.376;4.628;2023-06-14T20:05:35;23.27;;;4.25;;
24751;SDS011;27246;52.376;4.628;2023-06-14T20:10:38;2.08;;;1.88;;
24751;SDS011;27246;52.376;4.628;2023-06-14T20:15:41;3.28;;;1.77;;
24751;SDS011;27246;52.376;4.628;2023-06-14T20:20:48;8.07;;;2.50;;
24751;SDS011;27246;52.376;4.628;2023-06-14T20:25:50;4.28;;;2.58;;
24751;SDS011;27246;52.376;4.628;2023-06-14T20:30:53;3.50;;;2.40;;
24751;SDS011;27246;52.376;4.628;2023-06-14T20:35:55;5.55;;;2.20;;
24751;SDS011;27246;52.376;4.628;2023-06-14T20:40:58;3.40;;;2.60;;
24751;SDS011;27246;52.376;4.628;2023-06-14T20:46:00;5.15;;;3.35;;
24751;SDS011;27246;52.376;4.628;2023-06-14T20:51:04;6.05;;;3.38;;
24751;SDS011;27246;52.376;4.628;2023-06-14T20:56:06;5.70;;;4.35;;
24751;SDS011;27246;52.376;4.628;2023-06-14T21:01:07;5.30;;;2.20;;
24751;SDS011;27246;52.376;4.628;2023-06-14T21:06:11;2.53;;;2.20;;
24751;SDS011;27246;52.376;4.628;2023-06-14T21:11:14;2.63;;;2.42;;
24751;SDS011;27246;52.376;4.628;2023-06-14T21:16:16;3.30;;;2.58;;
24751;SDS011;27246;52.376;4.628;2023-06-14T21:21:18;7.53;;;2.58;;
24751;SDS011;27246;52.376;4.628;2023-06-14T21:26:20;3.08;;;2.47;;
24751;SDS011;27246;52.376;4.628;2023-06-14T21:31:24;3.72;;;3.13;;
24751;SDS011;27246;52.376;4.628;2023-06-14T21:36:26;5.25;;;3.30;;
24751;SDS011;27246;52.376;4.628;2023-06-14T21:41:27;6.47;;;3.63;;
24751;SDS011;27246;52.376;4.628;2023-06-14T21:46:30;2.40;;;2.10;;
24751;SDS011;27246;52.376;4.628;2023-06-14T21:51:35;6.35;;;3.85;;
24751;SDS011;27246;52.376;4.628;2023-06-14T21:56:36;4.25;;;3.47;;
24751;SDS011;27246;52.376;4.628;2023-06-14T22:01:38;2.85;;;2.22;;
24751;SDS011;27246;52.376;4.628;2023-06-14T22:06:40;5.97;;;3.50;;
24751;SDS011;27246;52.376;4.628;2023-06-14T22:11:51;5.32;;;3.17;;
24751;SDS011;27246;52.376;4.628;2023-06-14T22:16:52;5.60;;;3.60;;
24751;SDS011;27246;52.376;4.628;2023-06-14T22:21:54;5.60;;;3.70;;
24751;SDS011;27246;52.376;4.628;2023-06-14T22:26:58;10.57;;;6.60;;
24751;SDS011;27246;52.376;4.628;2023-06-14T22:32:00;6.25;;;3.72;;
24751;SDS011;27246;52.376;4.628;2023-06-14T22:37:03;5.90;;;3.65;;
24751;SDS011;27246;52.376;4.628;2023-06-14T22:42:06;6.32;;;4.30;;
24751;SDS011;27246;52.376;4.628;2023-06-14T22:47:08;8.15;;;3.90;;
24751;SDS011;27246;52.376;4.628;2023-06-14T22:52:11;4.53;;;3.55;;
24751;SDS011;27246;52.376;4.628;2023-06-14T22:57:14;8.25;;;4.30;;
24751;SDS011;27246;52.376;4.628;2023-06-14T23:02:18;5.75;;;3.88;;
24751;SDS011;27246;52.376;4.628;2023-06-14T23:07:20;8.35;;;3.70;;
24751;SDS011;27246;52.376;4.628;2023-06-14T23:12:23;6.10;;;4.10;;
24751;SDS011;27246;52.376;4.628;2023-06-14T23:17:28;4.22;;;3.80;;
24751;SDS011;27246;52.376;4.628;2023-06-14T23:22:34;6.38;;;3.72;;
24751;SDS011;27246;52.376;4.628;2023-06-14T23:27:37;5.95;;;3.10;;
24751;SDS011;27246;52.376;4.628;2023-06-14T23:32:42;5.90;;;3.58;;
24751;SDS011;27246;52.376;4.628;2023-06-14T23:37:45;4.55;;;3.30;;
24751;SDS011;27246;52.376;4.628;2023-06-14T23:42:48;6.35;;;3.38;;
24751;SDS011;27246;52.376;4.628;2023-06-14T23:47:52;4.38;;;3.42;;
24751;SDS011;27246;52.376;4.628;2023-06-14T23:52:53;7.40;;;4.05;;
24751;SDS011;27246;52.376;4.628;2023-06-14T23:58:00;8.95;;;4.47;;
